LIPE

Bologna Guglielmo Marconi Airport

Bologna, Italy
TAF LIPE 180500Z 1806/1906 VRB05KT 6000 SCT015 BKN030 TEMPO 1806/1807 2000 BR
Issued Valid From Valid To
Oct-18 @ 05:00 UTC
(7 hours ago)
Oct-18 @ 06:00 UTC
(6 hours ago)
Oct-19 @ 06:00 UTC
(in 18 hours)
Oct-18 @ 06:00 to Oct-19 @ 06:00
TAF LIPE 180500Z 1806/1906 VRB05KT 6000 SCT015 BKN030
Wind Visibility Clouds
Variable at 5 knots 6,003 meters
  • Scattered at 1,500' AGL
  • Broken at 3,000' AGL
Expired Click to View Oct-18 @ 06:00 to Oct-18 @ 07:00
TEMPO 1806/1807 2000 BR
Visibility Conditions
1,996 meters
  • Mist
TAF LIPE 180500Z 1806/1906 VRB05KT 6000 SCT015 BKN030 TEMPO 1806/1807 2000 BR
Issued Oct-18 @ 05:00 UTC
(7 hours ago)
Valid From Oct-18 @ 06:00 UTC
(6 hours ago)
Valid To Oct-19 @ 06:00 UTC
(in 18 hours)
Oct-18 @ 06:00 - Oct-19 @ 06:00
Wind Visibility
Variable at 5 knots 6,003 meters
Clouds
  • Scattered at 1,500' AGL
  • Broken at 3,000' AGL
Oct-18 @ 06:00 - Oct-18 @ 07:00
Conditions
  • Mist